マドリード/バラハス の空港の天気 - METARとTAF

マドリード・バラハス国際空港 ( LEMD / MAD ) - スペイン マドリード
飛行場実況気象(Metar)
観測時間08/17 13:30 CEST (08/17 11:30 UTC)
風向・風速南 3m/s
視程10km以上
天気現象
なし
気温34℃
湿度20%
気圧1017hPa
METARLEMD 171130Z 18006KT 120V260 CAVOK 34/08 Q1017 NOSIG
過去の天気等 Google飛行場航空写真 Wunderground天気予報

過去48時間のMETAR

飛行場予報(TAF)
発表時間: 8/17 13:00 CEST (8/17 11:00 UTC)
予報対象時間: 17日14時 CEST ~ 18日20時 CEST
風向・風速南南西 5m/s
視程10km以上
なし
17日14時 CEST ~ 17日22時 CEST に 確率 40% で一時的に
風向・風速南西 8m/s 瞬間風速 13m/s
18日0時 CEST ~ 18日2時 CEST に徐々に
風向・風速不定 3m/s
18日12時 CEST ~ 18日14時 CEST に徐々に
風向・風速南西 6m/s
18日14時 CEST ~ 18日20時 CEST に一時的に
風向・風速南西 8m/s 瞬間風速 14m/s
TAF LEMD 171100Z 1712/1818 21010KT CAVOK TX38/1716Z TN20/1806Z
PROB40 TEMPO 1712/1720 23015G25KT
BECMG 1722/1724 VRB05KT
BECMG 1810/1812 22012KT
TEMPO 1812/1818 23015G28KT